createdAt,value
2023-05-22T00:01:47.516Z,94599.41
2023-05-22T00:04:16.714Z,94594.31
2023-05-22T00:06:43.392Z,94604.75
2023-05-22T00:09:09.867Z,94601.09
2023-05-22T00:11:36.482Z,94592.31
2023-05-22T00:14:03.343Z,94596.00
2023-05-22T00:16:29.809Z,94597.69
2023-05-22T00:18:59.728Z,94594.63
2023-05-22T00:21:26.237Z,94592.59
2023-05-22T00:23:55.915Z,94592.41
2023-05-22T00:26:22.400Z,94594.28
2023-05-22T00:28:50.956Z,94596.31
2023-05-22T00:31:20.459Z,94589.78
2023-05-22T00:33:59.192Z,94591.41
2023-05-22T00:36:25.945Z,94587.94
2023-05-22T00:38:54.086Z,94595.94
2023-05-22T00:44:04.357Z,94592.84
2023-05-22T00:46:30.877Z,94593.06
2023-05-22T00:48:59.490Z,94584.91
2023-05-22T00:51:26.104Z,94592.44
2023-05-22T00:53:52.764Z,94589.38
2023-05-22T00:56:23.420Z,94597.16
2023-05-22T00:58:52.818Z,94589.38
2023-05-22T01:01:19.351Z,94593.28
2023-05-22T01:03:47.200Z,94594.28
2023-05-22T01:06:13.971Z,94591.44
2023-05-22T01:08:41.760Z,94597.97
2023-05-22T01:11:16.005Z,94592.63
2023-05-22T01:13:42.788Z,94583.66
2023-05-22T01:16:09.475Z,94593.44
2023-05-22T01:18:36.087Z,94588.34
2023-05-22T01:21:02.516Z,94584.88
2023-05-22T01:23:29.234Z,94577.91
2023-05-22T01:25:56.374Z,94576.91
2023-05-22T01:28:23.028Z,94585.47
2023-05-22T01:30:49.645Z,94586.91
2023-05-22T01:33:16.690Z,94588.94
2023-05-22T01:35:43.399Z,94586.28
2023-05-22T01:38:13.816Z,94587.28
2023-05-22T01:40:40.465Z,94589.31
2023-05-22T01:43:07.054Z,94586.66
2023-05-22T01:45:33.626Z,94582.81
2023-05-22T01:50:47.685Z,94583.78
2023-05-22T01:53:16.880Z,94578.06
2023-05-22T01:56:05.953Z,94584.38
2023-05-22T01:58:30.635Z,94590.41
2023-05-22T02:01:07.339Z,94587.97
2023-05-22T02:03:35.162Z,94592.66
2023-05-22T02:06:04.761Z,94590.38
2023-05-22T02:08:31.395Z,94588.75
2023-05-22T02:11:06.066Z,94592.81
2023-05-22T02:13:35.365Z,94589.13
2023-05-22T02:16:02.013Z,94586.09
2023-05-22T02:18:29.138Z,94583.25
2023-05-22T02:21:05.060Z,94590.38
2023-05-22T02:23:34.566Z,94589.75
2023-05-22T02:26:01.801Z,94593.63
2023-05-22T02:28:28.221Z,94589.31
2023-05-22T02:30:54.792Z,94596.00
2023-05-22T02:33:24.594Z,94595.19
2023-05-22T02:35:51.021Z,94595.19
2023-05-22T02:38:18.736Z,94589.47
2023-05-22T02:40:45.237Z,94592.75
2023-05-22T02:43:11.823Z,94586.44
2023-05-22T02:45:40.622Z,94588.22
2023-05-22T02:48:07.526Z,94591.88
2023-05-22T02:50:36.520Z,94585.31
2023-05-22T02:53:04.228Z,94593.84
2023-05-22T02:55:31.255Z,94593.84
2023-05-22T02:58:09.818Z,94594.25
2023-05-22T03:00:38.168Z,94591.00
2023-05-22T03:03:05.260Z,94589.78
2023-05-22T03:05:32.996Z,94582.00
2023-05-22T03:07:59.473Z,94577.94
2023-05-22T03:10:26.009Z,94586.84
2023-05-22T03:12:52.546Z,94586.81
2023-05-22T03:15:19.224Z,94590.19
2023-05-22T03:20:26.961Z,94599.34
2023-05-22T03:22:55.070Z,94600.19
2023-05-22T03:25:32.644Z,94591.59
2023-05-22T03:27:59.354Z,94591.97
2023-05-22T03:30:26.586Z,94601.72
2023-05-22T03:32:53.636Z,94598.03
2023-05-22T03:35:20.234Z,94601.47
2023-05-22T03:37:49.746Z,94600.47
2023-05-22T03:40:18.635Z,94597.41
2023-05-22T03:42:45.341Z,94595.16
2023-05-22T03:45:11.904Z,94593.09
2023-05-22T03:47:46.035Z,94594.91
2023-05-22T04:21:32.488Z,94614.03
2023-05-22T04:24:11.848Z,94609.66
2023-05-22T04:26:41.005Z,94616.25
2023-05-22T04:29:19.991Z,94623.06
2023-05-22T04:37:28.111Z,94625.56
2023-05-22T04:39:54.809Z,94626.03
2023-05-22T04:42:21.339Z,94627.88
2023-05-22T04:44:49.390Z,94625.06
2023-05-22T04:47:21.730Z,94625.28
2023-05-22T04:53:00.878Z,94619.25
2023-05-22T04:58:32.957Z,94630.59
2023-05-22T05:01:04.096Z,94624.50
2023-05-22T05:03:31.610Z,94628.00
2023-05-22T05:05:58.292Z,94623.16
2023-05-22T05:08:29.942Z,94625.22
2023-05-22T05:13:37.195Z,94624.81
2023-05-22T05:21:41.676Z,94621.44
2023-05-22T05:24:09.814Z,94628.44
2023-05-22T05:26:36.547Z,94631.94
2023-05-22T05:37:08.763Z,94621.41
2023-05-22T05:39:35.250Z,94623.25
2023-05-22T05:42:12.634Z,94619.63
2023-05-22T05:44:39.230Z,94624.09
2023-05-22T05:47:08.084Z,94624.91
2023-05-22T05:49:43.207Z,94621.69
2023-05-22T05:52:14.129Z,94625.97
2023-05-22T05:54:41.783Z,94630.06
2023-05-22T05:57:08.221Z,94626.41
2023-05-22T05:59:34.762Z,94629.44
2023-05-22T06:02:01.318Z,94629.44
2023-05-22T06:04:27.777Z,94630.66
2023-05-22T06:07:20.068Z,94628.59
2023-05-22T06:09:46.260Z,94631.91
2023-05-22T06:12:16.924Z,94627.00
2023-05-22T06:17:34.903Z,94632.25
2023-05-22T06:22:51.413Z,94635.47
2023-05-22T06:25:18.981Z,94641.38
2023-05-22T06:28:34.500Z,94637.44
2023-05-22T06:33:25.638Z,94625.09
2023-05-22T06:35:53.154Z,94621.78
2023-05-22T06:38:20.024Z,94618.38
2023-05-22T06:43:36.348Z,94617.13
2023-05-22T06:46:02.784Z,94624.47
2023-05-22T06:48:29.284Z,94622.28
2023-05-22T06:50:55.731Z,94620.00
2023-05-22T06:53:22.123Z,94630.63
2023-05-22T06:55:48.487Z,94630.19
2023-05-22T06:58:14.892Z,94635.13
2023-05-22T07:00:41.638Z,94638.59
2023-05-22T07:03:08.261Z,94636.59
2023-05-22T07:05:34.834Z,94633.25
2023-05-22T07:08:01.325Z,94634.91
2023-05-22T07:10:29.935Z,94630.16
2023-05-22T07:12:56.354Z,94629.88
2023-05-22T07:15:22.763Z,94639.50
2023-05-22T07:17:49.386Z,94629.72
2023-05-22T07:20:15.889Z,94631.72
2023-05-22T07:22:42.328Z,94639.97
2023-05-22T07:25:08.770Z,94639.88
2023-05-22T07:27:35.163Z,94638.69
2023-05-22T07:30:01.585Z,94636.81
2023-05-22T07:32:27.999Z,94634.06
2023-05-22T07:34:54.456Z,94631.25
2023-05-22T07:37:21.033Z,94633.41
2023-05-22T07:39:47.468Z,94632.31
2023-05-22T07:42:14.269Z,94630.34
2023-05-22T07:44:41.053Z,94626.53
2023-05-22T07:47:07.795Z,94633.53
2023-05-22T07:49:34.319Z,94632.97
2023-05-22T07:52:00.762Z,94634.72
2023-05-22T07:54:27.301Z,94628.09
2023-05-22T07:56:54.565Z,94629.84
2023-05-22T07:59:21.039Z,94629.06
2023-05-22T08:01:47.400Z,94630.31
2023-05-22T08:04:16.492Z,94627.53
2023-05-22T08:06:43.715Z,94635.44
2023-05-22T08:09:10.144Z,94631.75
2023-05-22T08:11:39.873Z,94626.56
2023-05-22T08:14:06.481Z,94627.97
2023-05-22T08:16:32.871Z,94635.13
2023-05-22T08:18:59.651Z,94626.75
2023-05-22T08:21:26.086Z,94621.78
2023-05-22T08:23:52.642Z,94629.22
2023-05-22T08:26:21.384Z,94625.81
2023-05-22T08:28:47.762Z,94630.88
2023-05-22T08:31:15.407Z,94631.78
2023-05-22T08:33:43.123Z,94615.41
2023-05-22T08:36:09.752Z,94618.31
2023-05-22T08:38:36.209Z,94619.03
2023-05-22T08:41:07.277Z,94609.50
2023-05-22T08:43:33.708Z,94604.66
2023-05-22T08:46:00.557Z,94611.09
2023-05-22T08:48:27.523Z,94610.78
2023-05-22T08:50:53.974Z,94608.09
2023-05-22T08:53:20.399Z,94616.63
2023-05-22T08:55:46.809Z,94609.66
2023-05-22T08:58:13.364Z,94604.75
2023-05-22T09:00:40.357Z,94599.25
2023-05-22T09:03:07.200Z,94604.03
2023-05-22T09:05:33.704Z,94600.75
2023-05-22T09:08:08.336Z,94604.28
2023-05-22T09:10:42.954Z,94601.78
2023-05-22T09:13:09.462Z,94603.91
2023-05-22T09:15:36.423Z,94602.91
2023-05-22T09:18:02.872Z,94605.59
2023-05-22T09:20:29.355Z,94612.56
2023-05-22T09:22:55.965Z,94601.06
2023-05-22T09:25:22.555Z,94601.78
2023-05-22T09:27:49.377Z,94609.28
2023-05-22T09:30:15.756Z,94606.44
2023-05-22T09:32:43.460Z,94605.22
2023-05-22T09:35:09.930Z,94602.38
2023-05-22T09:37:36.857Z,94602.59
2023-05-22T09:40:03.310Z,94611.88
2023-05-22T09:42:31.809Z,94608.97
2023-05-22T09:44:58.239Z,94597.81
2023-05-22T09:47:25.267Z,94599.81
2023-05-22T09:49:51.682Z,94600.16
2023-05-22T09:52:21.218Z,94596.47
2023-05-22T09:54:47.661Z,94601.31
2023-05-22T09:57:14.065Z,94597.81
2023-05-22T09:59:40.504Z,94598.56
2023-05-22T10:02:13.967Z,94592.00
2023-05-22T10:04:40.477Z,94590.47
2023-05-22T10:07:07.180Z,94590.72
2023-05-22T10:09:33.677Z,94582.66
2023-05-22T10:12:00.221Z,94594.38
2023-05-22T10:14:27.820Z,94592.59
2023-05-22T10:16:55.504Z,94593.06
2023-05-22T10:19:21.943Z,94586.75
2023-05-22T10:21:49.614Z,94594.56
2023-05-22T10:24:18.325Z,94588.84
2023-05-22T10:26:45.031Z,94590.72
2023-05-22T10:29:11.613Z,94583.78
2023-05-22T10:31:40.091Z,94583.16
2023-05-22T10:34:07.355Z,94573.78
2023-05-22T10:36:34.181Z,94577.03
2023-05-22T10:39:01.638Z,94576.78
2023-05-22T10:41:28.480Z,94573.84
2023-05-22T10:43:55.914Z,94571.59
2023-05-22T10:46:22.348Z,94572.69
2023-05-22T10:48:48.817Z,94574.31
2023-05-22T10:51:15.241Z,94578.38
2023-05-22T10:53:48.927Z,94574.63
2023-05-22T10:56:17.609Z,94579.16
2023-05-22T10:58:44.582Z,94578.25
2023-05-22T11:01:11.009Z,94565.88
2023-05-22T11:03:37.482Z,94570.28
2023-05-22T11:06:04.999Z,94562.94
2023-05-22T11:08:31.617Z,94562.91
2023-05-22T11:11:05.468Z,94573.53
2023-05-22T11:13:32.373Z,94566.16
2023-05-22T11:15:58.985Z,94563.28
2023-05-22T11:18:29.434Z,94561.81
2023-05-22T11:20:56.023Z,94551.09
2023-05-22T11:23:23.492Z,94553.25
2023-05-22T11:25:50.082Z,94549.78
2023-05-22T11:28:16.447Z,94558.38
2023-05-22T11:30:42.877Z,94552.75
2023-05-22T11:33:09.337Z,94547.09
2023-05-22T11:35:38.052Z,94537.66
2023-05-22T11:38:04.534Z,94546.06
2023-05-22T11:40:31.018Z,94546.06
2023-05-22T11:42:58.480Z,94533.94
2023-05-22T11:45:25.106Z,94537.16
2023-05-22T11:47:51.983Z,94534.41
2023-05-22T11:50:29.169Z,94545.25
2023-05-22T11:53:00.424Z,94534.16
2023-05-22T11:55:29.316Z,94530.09
2023-05-22T11:57:55.713Z,94530.09
2023-05-22T12:00:23.167Z,94527.94
2023-05-22T12:02:52.077Z,94519.81
2023-05-22T12:05:22.034Z,94515.78
2023-05-22T12:07:48.429Z,94514.72
2023-05-22T12:10:15.196Z,94508.19
2023-05-22T12:12:41.610Z,94513.81
2023-05-22T12:15:08.066Z,94510.03
2023-05-22T12:17:34.532Z,94511.38
2023-05-22T12:20:01.083Z,94511.41
2023-05-22T12:22:27.450Z,94512.81
2023-05-22T12:24:53.878Z,94514.97
2023-05-22T12:27:21.573Z,94513.94
2023-05-22T12:29:47.959Z,94508.53
2023-05-22T12:32:14.739Z,94506.31
2023-05-22T12:34:41.213Z,94501.44
2023-05-22T12:37:07.682Z,94507.13
2023-05-22T12:39:35.264Z,94503.56
2023-05-22T12:42:01.696Z,94502.47
2023-05-22T12:44:28.258Z,94502.78
2023-05-22T12:46:55.005Z,94499.56
2023-05-22T12:49:22.535Z,94503.03
2023-05-22T12:51:49.005Z,94503.56
2023-05-22T12:54:15.440Z,94510.41
2023-05-22T12:56:41.889Z,94508.22
2023-05-22T12:59:11.628Z,94499.84
2023-05-22T13:01:38.036Z,94501.69
2023-05-22T13:04:04.628Z,94499.81
2023-05-22T13:06:31.129Z,94507.16
2023-05-22T13:08:59.619Z,94505.56
2023-05-22T13:11:26.012Z,94510.16
2023-05-22T13:13:52.438Z,94505.84
2023-05-22T13:16:18.834Z,94506.38
2023-05-22T13:18:45.292Z,94503.59
2023-05-22T13:21:12.052Z,94502.78
2023-05-22T13:23:46.090Z,94500.34
2023-05-22T13:26:12.503Z,94494.13
2023-05-22T13:28:39.313Z,94493.34
2023-05-22T13:31:05.782Z,94497.41
2023-05-22T13:33:32.202Z,94496.88
2023-05-22T13:36:00.910Z,94484.94
2023-05-22T13:38:27.383Z,94476.41
2023-05-22T13:40:53.774Z,94475.25
2023-05-22T13:43:20.207Z,94480.81
2023-05-22T13:45:46.738Z,94476.72
2023-05-22T13:48:13.789Z,94463.75
2023-05-22T13:50:40.300Z,94465.59
2023-05-22T13:53:06.790Z,94473.63
2023-05-22T13:55:33.286Z,94468.09
2023-05-22T13:57:59.884Z,94470.88
2023-05-22T14:00:26.704Z,94469.22
2023-05-22T14:02:53.350Z,94461.50
2023-05-22T14:05:20.833Z,94463.00
2023-05-22T14:07:47.619Z,94460.47
2023-05-22T14:10:14.383Z,94459.31
2023-05-22T14:12:41.052Z,94452.81
2023-05-22T14:15:07.436Z,94446.75
2023-05-22T14:17:33.816Z,94444.88
2023-05-22T14:20:00.395Z,94442.06
2023-05-22T14:22:26.867Z,94443.91
2023-05-22T14:24:53.508Z,94444.16
2023-05-22T14:27:19.884Z,94444.38
2023-05-22T14:29:48.586Z,94444.81
2023-05-22T14:32:15.278Z,94438.72
2023-05-22T14:34:42.927Z,94437.56
2023-05-22T14:37:09.963Z,94451.47
2023-05-22T14:39:36.400Z,94443.97
2023-05-22T14:42:02.870Z,94444.16
2023-05-22T14:44:31.910Z,94436.25
2023-05-22T14:46:58.281Z,94444.97
2023-05-22T14:49:25.158Z,94446.75
2023-05-22T14:51:52.025Z,94449.13
2023-05-22T14:54:18.398Z,94459.31
2023-05-22T14:56:44.814Z,94450.72
2023-05-22T14:59:11.231Z,94456.59
2023-05-22T15:01:37.708Z,94442.59
2023-05-22T15:04:04.217Z,94450.69
2023-05-22T15:06:30.603Z,94451.22
2023-05-22T15:08:57.740Z,94446.94
2023-05-22T15:11:24.162Z,94452.03
2023-05-22T15:13:50.593Z,94455.72
2023-05-22T15:16:17.465Z,94447.63
2023-05-22T15:18:46.359Z,94456.03
2023-05-22T15:21:13.199Z,94451.25
2023-05-22T15:23:41.910Z,94452.88
2023-05-22T15:26:08.385Z,94451.22
2023-05-22T15:28:34.916Z,94449.59
2023-05-22T15:31:01.303Z,94455.06
2023-05-22T15:33:28.177Z,94450.19
2023-05-22T15:35:56.625Z,94435.59
2023-05-22T15:38:23.225Z,94448.03
2023-05-22T15:40:49.675Z,94437.19
2023-05-22T15:43:16.063Z,94446.81
2023-05-22T15:45:42.615Z,94444.59
2023-05-22T15:48:09.440Z,94445.84
2023-05-22T15:50:35.901Z,94439.88
2023-05-22T15:53:02.341Z,94448.97
2023-05-22T15:55:28.783Z,94456.19
2023-05-22T15:57:55.166Z,94452.06
2023-05-22T16:00:21.806Z,94455.53
2023-05-22T16:02:48.307Z,94462.88
2023-05-22T16:05:14.941Z,94455.59
2023-05-22T16:07:41.358Z,94466.66
2023-05-22T16:10:07.786Z,94471.72
2023-05-22T16:12:36.448Z,94464.16
2023-05-22T16:15:04.515Z,94472.31
2023-05-22T16:17:34.662Z,94469.13
2023-05-22T16:20:01.437Z,94465.81
2023-05-22T16:22:40.055Z,94464.75
2023-05-22T16:25:13.460Z,94460.09
2023-05-22T16:27:39.905Z,94457.16
2023-05-22T16:30:08.608Z,94453.66
2023-05-22T16:32:35.416Z,94451.75
2023-05-22T16:35:01.860Z,94452.31
2023-05-22T16:37:28.277Z,94448.50
2023-05-22T16:39:55.055Z,94448.16
2023-05-22T16:42:21.541Z,94447.91
2023-05-22T16:44:47.932Z,94459.22
2023-05-22T16:47:14.485Z,94463.56
2023-05-22T16:52:21.278Z,94458.94
2023-05-22T16:54:47.770Z,94457.69
2023-05-22T16:57:14.155Z,94454.34
2023-05-22T16:59:43.740Z,94467.31
2023-05-22T17:02:10.332Z,94465.25
2023-05-22T17:04:36.702Z,94472.03
2023-05-22T17:07:03.743Z,94475.59
2023-05-22T17:09:31.141Z,94483.13
2023-05-22T17:11:57.584Z,94489.53
2023-05-22T17:14:24.144Z,94492.19
2023-05-22T17:16:51.093Z,94502.69
2023-05-22T17:19:17.656Z,94513.25
2023-05-22T17:21:44.339Z,94518.47
2023-05-22T17:24:12.660Z,94512.75
2023-05-22T17:26:41.654Z,94521.94
2023-05-22T17:29:08.121Z,94526.31
2023-05-22T17:31:38.259Z,94529.03
2023-05-22T17:34:05.617Z,94532.81
2023-05-22T17:36:32.247Z,94530.13
2023-05-22T17:38:59.698Z,94532.31
2023-05-22T17:41:26.096Z,94532.25
2023-05-22T17:43:52.789Z,94531.41
2023-05-22T17:46:19.253Z,94522.50
2023-05-22T17:48:45.718Z,94524.91
2023-05-22T17:51:12.150Z,94521.91
2023-05-22T17:53:40.914Z,94530.50
2023-05-22T17:56:07.523Z,94541.22
2023-05-22T17:58:33.981Z,94545.47
2023-05-22T18:01:00.911Z,94556.72
2023-05-22T18:03:29.088Z,94549.06
2023-05-22T18:05:55.583Z,94563.50
2023-05-22T18:13:43.066Z,94556.91
2023-05-22T18:16:11.972Z,94565.16
2023-05-22T18:21:13.723Z,94571.38
2023-05-22T18:23:40.155Z,94573.69
2023-05-22T18:26:06.806Z,94579.41
2023-05-22T18:28:33.229Z,94581.91
2023-05-22T18:30:59.626Z,94583.72
2023-05-22T18:33:26.054Z,94594.25
2023-05-22T18:35:53.586Z,94589.97
2023-05-22T18:38:19.980Z,94589.69
2023-05-22T18:40:46.755Z,94588.63
2023-05-22T18:43:13.198Z,94588.38
2023-05-22T18:45:39.652Z,94595.06
2023-05-22T18:48:06.186Z,94597.16
2023-05-22T18:50:32.797Z,94594.34
2023-05-22T18:52:59.168Z,94596.28
2023-05-22T18:55:25.572Z,94599.56
2023-05-22T18:57:52.080Z,94595.00
2023-05-22T19:00:18.754Z,94596.06
2023-05-22T19:02:45.160Z,94588.50
2023-05-22T19:05:11.692Z,94583.63
2023-05-22T19:07:38.345Z,94587.03
2023-05-22T19:10:07.902Z,94576.66
2023-05-22T19:12:34.803Z,94592.06
2023-05-22T19:15:02.997Z,94590.78
2023-05-22T19:17:29.400Z,94594.41
2023-05-22T19:19:55.856Z,94598.03
2023-05-22T19:22:22.360Z,94606.91
2023-05-22T19:24:48.736Z,94610.88
2023-05-22T19:27:15.208Z,94602.16
2023-05-22T19:29:41.830Z,94599.13
2023-05-22T19:32:08.209Z,94589.25
2023-05-22T19:34:34.698Z,94592.50
2023-05-22T19:37:01.252Z,94593.28
2023-05-22T19:39:27.904Z,94595.19
2023-05-22T19:41:54.340Z,94592.94
2023-05-22T19:44:20.849Z,94603.56
2023-05-22T19:46:47.348Z,94597.50
2023-05-22T19:49:13.871Z,94616.06
2023-05-22T19:51:40.397Z,94614.56
2023-05-22T19:54:06.798Z,94625.16
2023-05-22T19:56:33.159Z,94617.91
2023-05-22T19:58:59.557Z,94624.44
2023-05-22T20:01:26.373Z,94622.34
2023-05-22T20:03:53.154Z,94627.84
2023-05-22T20:06:19.781Z,94634.00
2023-05-22T20:08:48.250Z,94625.16
2023-05-22T20:11:14.813Z,94618.06
2023-05-22T20:13:41.230Z,94628.75
2023-05-22T20:16:07.945Z,94645.28
2023-05-22T20:18:34.944Z,94649.91
2023-05-22T20:21:01.574Z,94654.09
2023-05-22T20:23:30.032Z,94655.59
2023-05-22T20:25:57.518Z,94673.50
2023-05-22T20:28:24.067Z,94682.00
2023-05-22T20:30:52.943Z,94682.94
2023-05-22T20:33:20.060Z,94667.13
2023-05-22T20:35:48.575Z,94675.97
2023-05-22T20:38:16.295Z,94690.28
2023-05-22T20:40:42.731Z,94697.13
2023-05-22T20:43:10.182Z,94689.19
2023-05-22T20:45:36.600Z,94686.03
2023-05-22T20:48:03.682Z,94682.19
2023-05-22T20:50:30.151Z,94691.28
2023-05-22T20:52:56.589Z,94695.13
2023-05-22T20:55:23.016Z,94697.13
2023-05-22T20:57:51.595Z,94693.38
2023-05-22T21:00:18.128Z,94671.06
2023-05-22T21:02:44.740Z,94679.44
2023-05-22T21:05:11.216Z,94683.28
2023-05-22T21:07:37.893Z,94687.84
2023-05-22T21:10:07.773Z,94682.50
2023-05-22T21:12:34.242Z,94677.94
2023-05-22T21:15:00.684Z,94680.41
2023-05-22T21:17:27.223Z,94680.41
2023-05-22T21:19:55.955Z,94673.41
2023-05-22T21:22:24.645Z,94675.72
2023-05-22T21:24:51.094Z,94681.75
2023-05-22T21:27:18.026Z,94676.25
2023-05-22T21:29:44.948Z,94680.78
2023-05-22T21:32:11.388Z,94680.28
2023-05-22T21:34:37.930Z,94668.41
2023-05-22T21:37:06.176Z,94668.25
2023-05-22T21:39:33.092Z,94660.09
2023-05-22T21:41:59.490Z,94661.53
2023-05-22T21:44:28.617Z,94665.13
2023-05-22T21:46:55.104Z,94662.59
2023-05-22T21:49:21.727Z,94665.84
2023-05-22T21:51:48.109Z,94668.09
2023-05-22T21:54:14.529Z,94680.63
2023-05-22T21:56:41.036Z,94684.44
2023-05-22T21:59:07.444Z,94693.13
2023-05-22T22:01:34.048Z,94698.72
2023-05-22T22:04:00.553Z,94696.47
2023-05-22T22:06:26.947Z,94713.41
2023-05-22T22:08:53.361Z,94705.84
2023-05-22T22:11:20.393Z,94701.53
2023-05-22T22:13:47.130Z,94703.84
2023-05-22T22:16:14.577Z,94706.59
2023-05-22T22:18:41.078Z,94704.97
2023-05-22T22:21:09.785Z,94710.94
2023-05-22T22:23:36.245Z,94708.50
2023-05-22T22:26:02.664Z,94705.91
2023-05-22T22:28:30.105Z,94710.44
2023-05-22T22:30:56.635Z,94704.28
2023-05-22T22:33:23.087Z,94699.75
2023-05-22T22:35:51.745Z,94708.00
2023-05-22T22:38:19.572Z,94711.72
2023-05-22T22:40:47.060Z,94709.25
2023-05-22T22:43:13.865Z,94710.94
2023-05-22T22:45:40.523Z,94710.59
2023-05-22T22:48:07.221Z,94708.56
2023-05-22T22:50:33.848Z,94708.44
2023-05-22T22:53:00.275Z,94701.91
2023-05-22T22:55:27.933Z,94708.34
2023-05-22T22:57:54.636Z,94713.66
2023-05-22T23:00:21.067Z,94707.72
2023-05-22T23:02:47.515Z,94706.13
2023-05-22T23:05:14.453Z,94713.53
2023-05-22T23:07:41.047Z,94704.94
2023-05-22T23:10:07.664Z,94706.41
2023-05-22T23:12:34.151Z,94703.38
2023-05-22T23:15:01.020Z,94702.78
2023-05-22T23:17:27.545Z,94707.09
2023-05-22T23:19:53.988Z,94696.28
2023-05-22T23:22:20.403Z,94700.56
2023-05-22T23:24:46.761Z,94698.50
2023-05-22T23:27:13.686Z,94691.56
2023-05-22T23:29:40.114Z,94689.09
2023-05-22T23:32:06.971Z,94692.78
2023-05-22T23:34:34.079Z,94702.50
2023-05-22T23:37:00.457Z,94699.38
2023-05-22T23:39:28.028Z,94694.53
2023-05-22T23:41:55.478Z,94696.75
2023-05-22T23:44:21.918Z,94698.81
2023-05-22T23:46:48.486Z,94696.59
2023-05-22T23:49:14.862Z,94692.28
2023-05-22T23:51:41.563Z,94691.53
2023-05-22T23:54:08.989Z,94695.50
2023-05-22T23:56:35.423Z,94693.66
2023-05-22T23:59:03.273Z,94697.81
